CST,Max TemperatureF,Mean TemperatureF,Min TemperatureF,Max Dew PointF,MeanDew PointF,Min DewpointF,Max Humidity, Mean Humidity, Min Humidity, Max Sea Level PressureIn, Mean Sea Level PressureIn, Min Sea Level PressureIn, Max VisibilityMiles, Mean VisibilityMiles, Min VisibilityMiles, Max Wind SpeedMPH, Mean Wind SpeedMPH, Max Gust SpeedMPH,PrecipitationIn, CloudCover, Events, WindDirDegrees
2013-11-1,59,48,37,40,37,33,89,73,39,29.98,29.77,29.59,10,10,10,20,8,37,0.00,4,Rain,288
2013-11-2,57,46,34,37,33,30,89,66,36,30.18,30.09,29.98,10,10,10,15,9,22,0.00,1,,268
2013-11-3,57,48,39,36,32,30,74,54,38,30.07,29.88,29.73,10,10,10,36,17,46,0.00,0,,156
2013-11-4,55,47,39,42,37,33,79,62,46,30.13,29.94,29.78,10,10,7,20,12,26,0.06,2,,72
2013-11-5,43,38,33,41,35,32,96,87,72,30.13,29.99,29.82,10,6,1,24,12,33,0.92,7,Rain-Snow,15
2013-11-6,40,36,31,33,31,29,94,86,70,30.25,30.18,30.03,10,10,2,22,12,29,0.05,6,Snow,278
2013-11-7,47,38,28,30,25,17,92,67,30,30.38,30.31,30.24,10,10,10,16,7,24,0.00,0,,259
2013-11-8,62,46,31,37,31,24,74,53,32,30.25,29.92,29.71,10,10,10,31,13,40,0.00,0,,187
2013-11-9,59,50,40,35,32,28,70,55,35,30.34,30.12,29.91,10,10,5,15,8,21,0.00,0,,292
2013-11-10,53,42,31,35,28,24,82,58,34,30.40,30.29,30.13,10,10,10,16,7,16,0.00,3,,170
2013-11-11,43,30,17,39,22,9,89,71,53,30.75,30.40,30.09,10,10,10,24,13,31,0.00,3,Snow,343
2013-11-12,32,20,8,11,8,6,87,61,33,30.86,30.73,30.52,10,10,10,16,7,,0.00,0,,234
2013-11-13,53,38,24,27,20,11,62,49,34,30.52,30.22,29.97,10,10,10,24,16,32,0.00,0,,182
2013-11-14,54,42,31,34,29,24,73,61,45,29.97,29.92,29.88,10,10,10,13,8,,0.00,1,,196
2013-11-15,56,44,31,42,33,28,90,69,43,29.88,29.76,29.59,10,10,7,18,7,25,0.00,0,,162
2013-11-16,63,54,45,51,40,30,89,65,35,29.58,29.39,29.30,10,10,7,28,15,38,0.00,2,,183
2013-11-17,53,44,36,42,35,31,83,67,49,30.04,29.62,29.33,10,10,5,17,8,18,0.04,4,Rain-Thunderstorm,320
2013-11-18,54,42,30,32,28,24,87,63,35,30.24,30.16,30.04,10,10,7,12,6,,0.00,0,,175
2013-11-19,61,48,35,31,26,22,65,44,26,30.16,29.99,29.86,10,10,10,33,16,41,0.00,2,,163
2013-11-20,54,46,37,36,32,26,87,57,39,29.93,29.82,29.75,10,10,10,22,16,30,0.00,0,,144
2013-11-21,37,29,21,34,23,16,91,79,64,30.54,30.25,29.94,10,8,2,28,16,36,0.00,7,Snow,342
2013-11-22,28,20,11,16,9,5,82,64,47,30.68,30.59,30.54,10,10,10,20,11,28,0.00,1,,298
2013-11-23,25,18,10,14,5,2,78,62,46,30.85,30.76,30.61,10,10,7,23,11,26,0.00,0,,355
2013-11-24,31,20,9,15,9,4,78,63,50,30.71,30.44,30.18,10,10,10,22,12,26,0.00,2,,172
2013-11-25,44,34,24,28,21,12,76,64,45,30.19,30.13,30.09,10,10,10,18,13,22,0.00,3,,260
2013-11-26,30,22,15,23,14,5,81,62,37,30.40,30.30,30.17,10,10,7,29,12,34,0.00,2,,321
2013-11-27,32,20,8,16,10,4,83,62,41,30.40,30.21,30.00,10,10,10,23,8,26,0.00,0,,203
2013-11-28,33,27,21,21,17,14,79,64,47,30.46,30.30,30.03,10,10,10,21,12,29,0.00,1,,346
2013-11-29,44,32,19,26,20,14,82,65,46,30.45,30.30,30.12,10,10,10,18,9,23,0.00,0,,147
2013-11-30,56,41,26,29,26,22,82,62,34,30.13,30.09,30.05,10,10,10,13,7,,0.00,0,,250